sensor_id;sensor_type;location;lat;lon;timestamp;temperature;humidity
59075;DHT22;44860;53.020;6.738;2022-11-15T00:01:29;8.00;99.90
59075;DHT22;44860;53.020;6.738;2022-11-15T00:03:55;8.00;99.90
59075;DHT22;44860;53.020;6.738;2022-11-15T00:06:20;7.90;99.90
59075;DHT22;44860;53.020;6.738;2022-11-15T00:08:46;7.90;99.90
59075;DHT22;44860;53.020;6.738;2022-11-15T00:11:12;7.90;99.90
59075;DHT22;44860;53.020;6.738;2022-11-15T00:13:39;7.80;99.90
59075;DHT22;44860;53.020;6.738;2022-11-15T00:16:05;7.80;99.90
59075;DHT22;44860;53.020;6.738;2022-11-15T00:18:31;7.80;99.90
59075;DHT22;44860;53.020;6.738;2022-11-15T00:21:03;7.80;99.90
59075;DHT22;44860;53.020;6.738;2022-11-15T00:23:29;7.70;99.90
59075;DHT22;44860;53.020;6.738;2022-11-15T00:25:59;7.70;99.90
59075;DHT22;44860;53.020;6.738;2022-11-15T00:28:25;7.60;99.90
59075;DHT22;44860;53.020;6.738;2022-11-15T00:30:51;7.60;99.90
59075;DHT22;44860;53.020;6.738;2022-11-15T00:33:17;7.60;99.90
59075;DHT22;44860;53.020;6.738;2022-11-15T00:35:42;7.60;99.90
59075;DHT22;44860;53.020;6.738;2022-11-15T00:38:08;7.60;99.90
59075;DHT22;44860;53.020;6.738;2022-11-15T00:40:34;7.50;99.90
59075;DHT22;44860;53.020;6.738;2022-11-15T00:42:59;7.60;99.90
59075;DHT22;44860;53.020;6.738;2022-11-15T00:45:25;7.60;99.90
59075;DHT22;44860;53.020;6.738;2022-11-15T00:47:51;7.60;99.90
59075;DHT22;44860;53.020;6.738;2022-11-15T00:50:17;7.60;99.90
59075;DHT22;44860;53.020;6.738;2022-11-15T00:52:44;7.60;99.90
59075;DHT22;44860;53.020;6.738;2022-11-15T00:55:15;7.60;99.90
59075;DHT22;44860;53.020;6.738;2022-11-15T00:57:41;7.60;99.90
59075;DHT22;44860;53.020;6.738;2022-11-15T01:00:07;7.60;99.90
59075;DHT22;44860;53.020;6.738;2022-11-15T01:02:33;7.70;99.90
59075;DHT22;44860;53.020;6.738;2022-11-15T01:04:59;7.70;99.90
59075;DHT22;44860;53.020;6.738;2022-11-15T01:07:25;7.70;99.90
59075;DHT22;44860;53.020;6.738;2022-11-15T01:09:50;7.70;99.90
59075;DHT22;44860;53.020;6.738;2022-11-15T01:12:16;7.70;99.90
59075;DHT22;44860;53.020;6.738;2022-11-15T01:14:42;7.70;99.90
59075;DHT22;44860;53.020;6.738;2022-11-15T01:17:07;7.70;99.90
59075;DHT22;44860;53.020;6.738;2022-11-15T01:19:33;7.70;99.90
59075;DHT22;44860;53.020;6.738;2022-11-15T01:21:58;7.70;99.90
59075;DHT22;44860;53.020;6.738;2022-11-15T01:24:24;7.70;99.90
59075;DHT22;44860;53.020;6.738;2022-11-15T01:26:50;7.70;99.90
59075;DHT22;44860;53.020;6.738;2022-11-15T01:29:15;7.70;99.90
59075;DHT22;44860;53.020;6.738;2022-11-15T01:31:41;7.80;99.90
59075;DHT22;44860;53.020;6.738;2022-11-15T01:34:07;7.80;99.90
59075;DHT22;44860;53.020;6.738;2022-11-15T01:36:32;7.80;99.90
59075;DHT22;44860;53.020;6.738;2022-11-15T01:38:59;7.80;99.90
59075;DHT22;44860;53.020;6.738;2022-11-15T01:41:27;7.80;99.90
59075;DHT22;44860;53.020;6.738;2022-11-15T01:43:55;7.80;99.90
59075;DHT22;44860;53.020;6.738;2022-11-15T01:48:47;7.80;99.90
59075;DHT22;44860;53.020;6.738;2022-11-15T01:51:16;7.90;99.90
59075;DHT22;44860;53.020;6.738;2022-11-15T01:53:45;7.80;99.90
59075;DHT22;44860;53.020;6.738;2022-11-15T01:56:15;7.80;99.90
59075;DHT22;44860;53.020;6.738;2022-11-15T01:58:43;7.80;99.90
59075;DHT22;44860;53.020;6.738;2022-11-15T02:01:09;7.90;99.90
59075;DHT22;44860;53.020;6.738;2022-11-15T02:03:46;7.80;99.90
59075;DHT22;44860;53.020;6.738;2022-11-15T02:06:14;7.90;99.90
59075;DHT22;44860;53.020;6.738;2022-11-15T02:08:40;7.90;99.90
59075;DHT22;44860;53.020;6.738;2022-11-15T02:11:10;7.90;99.90
59075;DHT22;44860;53.020;6.738;2022-11-15T02:13:36;7.90;99.90
59075;DHT22;44860;53.020;6.738;2022-11-15T02:21:47;7.90;99.90
59075;DHT22;44860;53.020;6.738;2022-11-15T02:27:09;7.90;99.90
59075;DHT22;44860;53.020;6.738;2022-11-15T02:29:56;7.90;99.90
59075;DHT22;44860;53.020;6.738;2022-11-15T02:32:40;7.90;99.90
59075;DHT22;44860;53.020;6.738;2022-11-15T02:35:17;7.90;99.90
59075;DHT22;44860;53.020;6.738;2022-11-15T02:40:57;8.00;99.90
59075;DHT22;44860;53.020;6.738;2022-11-15T02:43:45;8.00;99.90
59075;DHT22;44860;53.020;6.738;2022-11-15T02:49:32;8.00;99.90
59075;DHT22;44860;53.020;6.738;2022-11-15T02:51:58;8.00;99.90
59075;DHT22;44860;53.020;6.738;2022-11-15T02:54:28;8.00;99.90
59075;DHT22;44860;53.020;6.738;2022-11-15T02:56:58;8.00;99.90
59075;DHT22;44860;53.020;6.738;2022-11-15T02:59:33;8.00;99.90
59075;DHT22;44860;53.020;6.738;2022-11-15T03:02:08;8.00;99.90
59075;DHT22;44860;53.020;6.738;2022-11-15T03:04:44;8.10;99.90
59075;DHT22;44860;53.020;6.738;2022-11-15T03:07:20;8.10;99.90
59075;DHT22;44860;53.020;6.738;2022-11-15T03:10:02;8.10;99.90
59075;DHT22;44860;53.020;6.738;2022-11-15T03:12:45;8.10;99.90
59075;DHT22;44860;53.020;6.738;2022-11-15T03:15:16;8.10;99.90
59075;DHT22;44860;53.020;6.738;2022-11-15T03:18:06;8.10;99.90
59075;DHT22;44860;53.020;6.738;2022-11-15T03:20:35;8.10;99.90
59075;DHT22;44860;53.020;6.738;2022-11-15T03:23:04;8.20;99.90
59075;DHT22;44860;53.020;6.738;2022-11-15T03:25:32;8.20;99.90
59075;DHT22;44860;53.020;6.738;2022-11-15T03:28:03;8.20;99.90
59075;DHT22;44860;53.020;6.738;2022-11-15T03:30:32;8.10;99.90
59075;DHT22;44860;53.020;6.738;2022-11-15T03:33:02;8.20;99.90
59075;DHT22;44860;53.020;6.738;2022-11-15T03:35:33;8.20;99.90
59075;DHT22;44860;53.020;6.738;2022-11-15T03:38:03;8.20;99.90
59075;DHT22;44860;53.020;6.738;2022-11-15T03:40:41;8.20;99.90
59075;DHT22;44860;53.020;6.738;2022-11-15T03:43:30;8.30;99.90
59075;DHT22;44860;53.020;6.738;2022-11-15T03:46:02;8.20;99.90
59075;DHT22;44860;53.020;6.738;2022-11-15T03:48:51;8.30;99.90
59075;DHT22;44860;53.020;6.738;2022-11-15T03:51:18;8.30;99.90
59075;DHT22;44860;53.020;6.738;2022-11-15T03:53:44;8.30;99.90
59075;DHT22;44860;53.020;6.738;2022-11-15T03:56:10;8.30;99.90
59075;DHT22;44860;53.020;6.738;2022-11-15T03:58:36;8.30;99.90
59075;DHT22;44860;53.020;6.738;2022-11-15T04:01:01;8.30;99.90
59075;DHT22;44860;53.020;6.738;2022-11-15T04:03:27;8.40;99.90
59075;DHT22;44860;53.020;6.738;2022-11-15T04:05:53;8.40;99.90
59075;DHT22;44860;53.020;6.738;2022-11-15T04:08:18;8.40;99.90
59075;DHT22;44860;53.020;6.738;2022-11-15T04:10:44;8.40;99.90
59075;DHT22;44860;53.020;6.738;2022-11-15T04:13:09;8.40;99.90
59075;DHT22;44860;53.020;6.738;2022-11-15T04:15:35;8.40;99.90
59075;DHT22;44860;53.020;6.738;2022-11-15T04:18:01;8.40;99.90
59075;DHT22;44860;53.020;6.738;2022-11-15T04:20:29;8.50;99.90
59075;DHT22;44860;53.020;6.738;2022-11-15T04:23:16;8.40;99.90
59075;DHT22;44860;53.020;6.738;2022-11-15T04:26:03;8.50;99.90
59075;DHT22;44860;53.020;6.738;2022-11-15T04:28:29;8.50;99.90
59075;DHT22;44860;53.020;6.738;2022-11-15T04:30:55;8.50;99.90
59075;DHT22;44860;53.020;6.738;2022-11-15T04:33:22;8.60;99.90
59075;DHT22;44860;53.020;6.738;2022-11-15T04:35:48;8.60;99.90
59075;DHT22;44860;53.020;6.738;2022-11-15T04:38:34;8.60;99.90
59075;DHT22;44860;53.020;6.738;2022-11-15T04:41:00;8.70;99.90
59075;DHT22;44860;53.020;6.738;2022-11-15T04:43:25;8.70;99.90
59075;DHT22;44860;53.020;6.738;2022-11-15T04:45:51;8.70;99.90
59075;DHT22;44860;53.020;6.738;2022-11-15T04:48:17;8.70;99.90
59075;DHT22;44860;53.020;6.738;2022-11-15T04:50:42;8.80;99.90
59075;DHT22;44860;53.020;6.738;2022-11-15T04:53:08;8.80;99.90
59075;DHT22;44860;53.020;6.738;2022-11-15T04:55:34;8.80;99.90
59075;DHT22;44860;53.020;6.738;2022-11-15T04:58:00;8.80;99.90
59075;DHT22;44860;53.020;6.738;2022-11-15T05:00:27;8.80;99.90
59075;DHT22;44860;53.020;6.738;2022-11-15T05:02:53;8.90;99.90
59075;DHT22;44860;53.020;6.738;2022-11-15T05:05:38;8.90;99.90
59075;DHT22;44860;53.020;6.738;2022-11-15T05:08:03;8.90;99.90
59075;DHT22;44860;53.020;6.738;2022-11-15T05:10:29;9.00;99.90
59075;DHT22;44860;53.020;6.738;2022-11-15T05:12:55;8.90;99.90
59075;DHT22;44860;53.020;6.738;2022-11-15T05:15:21;9.00;99.90
59075;DHT22;44860;53.020;6.738;2022-11-15T05:17:46;9.00;99.90
59075;DHT22;44860;53.020;6.738;2022-11-15T05:20:12;9.10;99.90
59075;DHT22;44860;53.020;6.738;2022-11-15T05:22:38;9.10;99.90
59075;DHT22;44860;53.020;6.738;2022-11-15T05:25:04;9.10;99.90
59075;DHT22;44860;53.020;6.738;2022-11-15T05:27:30;9.10;99.90
59075;DHT22;44860;53.020;6.738;2022-11-15T05:29:56;9.20;99.90
59075;DHT22;44860;53.020;6.738;2022-11-15T05:32:21;9.20;99.90
59075;DHT22;44860;53.020;6.738;2022-11-15T05:34:47;9.20;99.90
59075;DHT22;44860;53.020;6.738;2022-11-15T05:37:14;9.20;99.90
59075;DHT22;44860;53.020;6.738;2022-11-15T05:39:39;9.20;99.90
59075;DHT22;44860;53.020;6.738;2022-11-15T05:42:15;9.30;99.90
59075;DHT22;44860;53.020;6.738;2022-11-15T05:44:46;9.30;99.90
59075;DHT22;44860;53.020;6.738;2022-11-15T05:47:19;9.30;99.90
59075;DHT22;44860;53.020;6.738;2022-11-15T05:49:47;9.40;99.90
59075;DHT22;44860;53.020;6.738;2022-11-15T05:52:17;9.40;99.90
59075;DHT22;44860;53.020;6.738;2022-11-15T05:54:45;9.40;99.90
59075;DHT22;44860;53.020;6.738;2022-11-15T05:57:10;9.50;99.90
59075;DHT22;44860;53.020;6.738;2022-11-15T05:59:37;9.50;99.90
59075;DHT22;44860;53.020;6.738;2022-11-15T06:02:02;9.50;99.90
59075;DHT22;44860;53.020;6.738;2022-11-15T06:04:28;9.50;99.90
59075;DHT22;44860;53.020;6.738;2022-11-15T06:06:54;9.60;99.90
59075;DHT22;44860;53.020;6.738;2022-11-15T06:09:19;9.50;99.90
59075;DHT22;44860;53.020;6.738;2022-11-15T06:11:45;9.60;99.90
59075;DHT22;44860;53.020;6.738;2022-11-15T06:14:11;9.60;99.90
59075;DHT22;44860;53.020;6.738;2022-11-15T06:16:36;9.60;99.90
59075;DHT22;44860;53.020;6.738;2022-11-15T06:19:02;9.60;99.90
59075;DHT22;44860;53.020;6.738;2022-11-15T06:21:28;9.60;99.90
59075;DHT22;44860;53.020;6.738;2022-11-15T06:23:54;9.60;99.90
59075;DHT22;44860;53.020;6.738;2022-11-15T06:26:21;9.60;99.90
59075;DHT22;44860;53.020;6.738;2022-11-15T06:28:47;9.60;99.90
59075;DHT22;44860;53.020;6.738;2022-11-15T06:31:12;9.60;99.90
59075;DHT22;44860;53.020;6.738;2022-11-15T06:33:38;9.60;99.90
59075;DHT22;44860;53.020;6.738;2022-11-15T06:36:06;9.70;99.90
59075;DHT22;44860;53.020;6.738;2022-11-15T06:38:33;9.70;99.90
59075;DHT22;44860;53.020;6.738;2022-11-15T06:41:03;9.80;99.90
59075;DHT22;44860;53.020;6.738;2022-11-15T06:43:29;9.80;99.90
59075;DHT22;44860;53.020;6.738;2022-11-15T06:45:54;9.80;99.90
59075;DHT22;44860;53.020;6.738;2022-11-15T06:48:20;9.80;99.90
59075;DHT22;44860;53.020;6.738;2022-11-15T06:50:52;9.90;99.90
59075;DHT22;44860;53.020;6.738;2022-11-15T06:53:18;9.90;99.90
59075;DHT22;44860;53.020;6.738;2022-11-15T06:55:44;9.90;99.90
59075;DHT22;44860;53.020;6.738;2022-11-15T06:58:10;10.00;99.90
59075;DHT22;44860;53.020;6.738;2022-11-15T07:00:35;10.00;99.90
59075;DHT22;44860;53.020;6.738;2022-11-15T07:03:01;10.00;99.90
59075;DHT22;44860;53.020;6.738;2022-11-15T07:05:27;10.00;99.90
59075;DHT22;44860;53.020;6.738;2022-11-15T07:07:54;10.10;99.90
59075;DHT22;44860;53.020;6.738;2022-11-15T07:10:20;10.10;99.90
59075;DHT22;44860;53.020;6.738;2022-11-15T07:12:48;10.20;99.90
59075;DHT22;44860;53.020;6.738;2022-11-15T07:15:15;10.20;99.90
59075;DHT22;44860;53.020;6.738;2022-11-15T07:17:41;10.20;99.90
59075;DHT22;44860;53.020;6.738;2022-11-15T07:20:07;10.30;99.90
59075;DHT22;44860;53.020;6.738;2022-11-15T07:22:32;10.30;99.90
59075;DHT22;44860;53.020;6.738;2022-11-15T07:24:58;10.40;99.90
59075;DHT22;44860;53.020;6.738;2022-11-15T07:27:24;10.40;99.90
59075;DHT22;44860;53.020;6.738;2022-11-15T07:29:49;10.40;99.90
59075;DHT22;44860;53.020;6.738;2022-11-15T07:32:15;10.50;99.90
59075;DHT22;44860;53.020;6.738;2022-11-15T07:34:41;10.50;99.90
59075;DHT22;44860;53.020;6.738;2022-11-15T07:37:06;10.60;99.90
59075;DHT22;44860;53.020;6.738;2022-11-15T07:39:32;10.60;99.90
59075;DHT22;44860;53.020;6.738;2022-11-15T07:41:59;10.60;99.90
59075;DHT22;44860;53.020;6.738;2022-11-15T07:44:43;10.60;99.90
59075;DHT22;44860;53.020;6.738;2022-11-15T07:47:09;10.70;99.90
59075;DHT22;44860;53.020;6.738;2022-11-15T07:49:34;10.70;99.90
59075;DHT22;44860;53.020;6.738;2022-11-15T07:52:00;10.70;99.90
59075;DHT22;44860;53.020;6.738;2022-11-15T07:54:26;10.80;99.90
59075;DHT22;44860;53.020;6.738;2022-11-15T07:56:51;10.80;99.90
59075;DHT22;44860;53.020;6.738;2022-11-15T07:59:17;10.80;99.90
59075;DHT22;44860;53.020;6.738;2022-11-15T08:01:43;10.80;99.90
59075;DHT22;44860;53.020;6.738;2022-11-15T08:04:10;10.80;99.90
59075;DHT22;44860;53.020;6.738;2022-11-15T08:06:36;10.90;99.90
59075;DHT22;44860;53.020;6.738;2022-11-15T08:09:02;10.90;99.90
59075;DHT22;44860;53.020;6.738;2022-11-15T08:11:28;10.90;99.90
59075;DHT22;44860;53.020;6.738;2022-11-15T08:13:54;10.90;99.90
59075;DHT22;44860;53.020;6.738;2022-11-15T08:16:19;11.00;99.90
59075;DHT22;44860;53.020;6.738;2022-11-15T08:18:46;11.00;99.90
59075;DHT22;44860;53.020;6.738;2022-11-15T08:21:14;11.00;99.90
59075;DHT22;44860;53.020;6.738;2022-11-15T08:23:42;11.00;99.90
59075;DHT22;44860;53.020;6.738;2022-11-15T08:26:08;11.00;99.90
59075;DHT22;44860;53.020;6.738;2022-11-15T08:28:34;11.10;99.90
59075;DHT22;44860;53.020;6.738;2022-11-15T08:31:00;11.10;99.90
59075;DHT22;44860;53.020;6.738;2022-11-15T08:33:27;11.10;99.90
59075;DHT22;44860;53.020;6.738;2022-11-15T08:35:56;11.10;99.90
59075;DHT22;44860;53.020;6.738;2022-11-15T08:38:22;11.10;99.90
59075;DHT22;44860;53.020;6.738;2022-11-15T08:40:48;11.10;99.90
59075;DHT22;44860;53.020;6.738;2022-11-15T08:43:14;11.10;99.90
59075;DHT22;44860;53.020;6.738;2022-11-15T08:45:39;11.10;99.90
59075;DHT22;44860;53.020;6.738;2022-11-15T08:48:05;11.10;99.90
59075;DHT22;44860;53.020;6.738;2022-11-15T08:50:31;11.20;99.90
59075;DHT22;44860;53.020;6.738;2022-11-15T08:52:57;11.20;99.90
59075;DHT22;44860;53.020;6.738;2022-11-15T08:55:23;11.20;99.90
59075;DHT22;44860;53.020;6.738;2022-11-15T08:57:48;11.20;99.90
59075;DHT22;44860;53.020;6.738;2022-11-15T09:00:14;11.20;99.90
59075;DHT22;44860;53.020;6.738;2022-11-15T09:02:40;11.30;99.90
59075;DHT22;44860;53.020;6.738;2022-11-15T09:05:06;11.20;99.90
59075;DHT22;44860;53.020;6.738;2022-11-15T09:07:32;11.30;99.90
59075;DHT22;44860;53.020;6.738;2022-11-15T09:09:58;11.30;99.90
59075;DHT22;44860;53.020;6.738;2022-11-15T09:12:24;11.30;99.90
59075;DHT22;44860;53.020;6.738;2022-11-15T09:14:49;11.30;99.90
59075;DHT22;44860;53.020;6.738;2022-11-15T09:17:15;11.30;99.90
59075;DHT22;44860;53.020;6.738;2022-11-15T09:19:41;11.40;99.90
59075;DHT22;44860;53.020;6.738;2022-11-15T09:22:07;11.40;99.90
59075;DHT22;44860;53.020;6.738;2022-11-15T09:24:34;11.40;99.90
59075;DHT22;44860;53.020;6.738;2022-11-15T09:26:59;11.40;99.90
59075;DHT22;44860;53.020;6.738;2022-11-15T09:29:25;11.40;99.90
59075;DHT22;44860;53.020;6.738;2022-11-15T09:31:54;11.50;99.90
59075;DHT22;44860;53.020;6.738;2022-11-15T09:34:20;11.50;99.90
59075;DHT22;44860;53.020;6.738;2022-11-15T09:36:46;11.50;99.90
59075;DHT22;44860;53.020;6.738;2022-11-15T09:39:12;11.50;99.90
59075;DHT22;44860;53.020;6.738;2022-11-15T09:48:03;11.60;99.90
59075;DHT22;44860;53.020;6.738;2022-11-15T09:50:46;11.70;99.90
59075;DHT22;44860;53.020;6.738;2022-11-15T09:53:17;11.70;99.90
59075;DHT22;44860;53.020;6.738;2022-11-15T09:56:01;11.70;99.90
59075;DHT22;44860;53.020;6.738;2022-11-15T09:58:39;11.70;99.90
59075;DHT22;44860;53.020;6.738;2022-11-15T10:01:16;11.70;99.90
59075;DHT22;44860;53.020;6.738;2022-11-15T10:03:42;11.70;99.90
59075;DHT22;44860;53.020;6.738;2022-11-15T10:06:23;11.70;99.90
59075;DHT22;44860;53.020;6.738;2022-11-15T10:09:06;11.70;99.90
59075;DHT22;44860;53.020;6.738;2022-11-15T10:11:35;11.80;99.90
59075;DHT22;44860;53.020;6.738;2022-11-15T10:14:09;11.70;99.90
59075;DHT22;44860;53.020;6.738;2022-11-15T10:17:02;11.70;99.90
59075;DHT22;44860;53.020;6.738;2022-11-15T10:24:42;11.80;99.90
59075;DHT22;44860;53.020;6.738;2022-11-15T10:27:14;11.80;99.90
59075;DHT22;44860;53.020;6.738;2022-11-15T10:29:48;11.80;99.90
59075;DHT22;44860;53.020;6.738;2022-11-15T10:32:17;11.70;99.90
59075;DHT22;44860;53.020;6.738;2022-11-15T10:34:43;11.80;99.90
59075;DHT22;44860;53.020;6.738;2022-11-15T10:37:09;11.70;99.90
59075;DHT22;44860;53.020;6.738;2022-11-15T10:39:35;11.80;99.90
59075;DHT22;44860;53.020;6.738;2022-11-15T10:42:18;11.70;99.90
59075;DHT22;44860;53.020;6.738;2022-11-15T10:44:50;11.80;99.90
59075;DHT22;44860;53.020;6.738;2022-11-15T10:47:30;11.80;99.90
59075;DHT22;44860;53.020;6.738;2022-11-15T10:50:00;11.70;99.90
59075;DHT22;44860;53.020;6.738;2022-11-15T10:52:27;11.80;99.90
59075;DHT22;44860;53.020;6.738;2022-11-15T10:54:58;11.70;99.90
59075;DHT22;44860;53.020;6.738;2022-11-15T10:57:30;11.80;99.90
59075;DHT22;44860;53.020;6.738;2022-11-15T11:02:40;11.80;99.90
59075;DHT22;44860;53.020;6.738;2022-11-15T11:05:32;11.90;99.90
59075;DHT22;44860;53.020;6.738;2022-11-15T11:08:24;11.90;99.90
59075;DHT22;44860;53.020;6.738;2022-11-15T11:10:58;11.90;99.90
59075;DHT22;44860;53.020;6.738;2022-11-15T11:13:35;11.90;99.90
59075;DHT22;44860;53.020;6.738;2022-11-15T11:19:04;11.90;99.90
59075;DHT22;44860;53.020;6.738;2022-11-15T11:24:47;11.90;99.90
59075;DHT22;44860;53.020;6.738;2022-11-15T11:30:47;12.10;99.90
59075;DHT22;44860;53.020;6.738;2022-11-15T11:33:24;12.10;99.90
59075;DHT22;44860;53.020;6.738;2022-11-15T11:44:17;12.30;99.90
59075;DHT22;44860;53.020;6.738;2022-11-15T11:47:12;12.40;99.90
59075;DHT22;44860;53.020;6.738;2022-11-15T11:52:43;12.40;99.90
59075;DHT22;44860;53.020;6.738;2022-11-15T11:55:37;12.40;99.90
59075;DHT22;44860;53.020;6.738;2022-11-15T11:58:18;12.40;99.90
59075;DHT22;44860;53.020;6.738;2022-11-15T12:01:09;12.50;99.90
59075;DHT22;44860;53.020;6.738;2022-11-15T12:04:13;12.50;99.90
59075;DHT22;44860;53.020;6.738;2022-11-15T12:07:01;12.50;99.90
59075;DHT22;44860;53.020;6.738;2022-11-15T12:09:36;12.50;99.90
59075;DHT22;44860;53.020;6.738;2022-11-15T12:17:10;12.50;99.90
59075;DHT22;44860;53.020;6.738;2022-11-15T12:19:37;12.50;99.90
59075;DHT22;44860;53.020;6.738;2022-11-15T12:22:23;12.50;99.90
59075;DHT22;44860;53.020;6.738;2022-11-15T12:25:02;12.50;99.90
59075;DHT22;44860;53.020;6.738;2022-11-15T12:27:34;12.50;99.90
59075;DHT22;44860;53.020;6.738;2022-11-15T12:30:12;12.50;99.90
59075;DHT22;44860;53.020;6.738;2022-11-15T12:32:48;12.40;99.90
59075;DHT22;44860;53.020;6.738;2022-11-15T12:38:00;12.40;99.90
59075;DHT22;44860;53.020;6.738;2022-11-15T12:40:33;12.40;99.90
59075;DHT22;44860;53.020;6.738;2022-11-15T12:56:19;12.40;99.90
59075;DHT22;44860;53.020;6.738;2022-11-15T12:58:57;12.40;99.90
59075;DHT22;44860;53.020;6.738;2022-11-15T13:01:55;12.40;99.90
59075;DHT22;44860;53.020;6.738;2022-11-15T13:04:22;12.50;99.90
59075;DHT22;44860;53.020;6.738;2022-11-15T13:07:05;12.50;99.90
59075;DHT22;44860;53.020;6.738;2022-11-15T13:12:47;12.60;99.90
59075;DHT22;44860;53.020;6.738;2022-11-15T13:17:50;12.60;99.90
59075;DHT22;44860;53.020;6.738;2022-11-15T13:22:50;12.60;99.90
59075;DHT22;44860;53.020;6.738;2022-11-15T13:25:48;12.60;99.90
59075;DHT22;44860;53.020;6.738;2022-11-15T13:28:19;12.60;99.90
59075;DHT22;44860;53.020;6.738;2022-11-15T13:30:54;12.60;99.90
59075;DHT22;44860;53.020;6.738;2022-11-15T13:33:34;12.60;99.90
59075;DHT22;44860;53.020;6.738;2022-11-15T13:38:44;12.60;99.90
59075;DHT22;44860;53.020;6.738;2022-11-15T13:41:24;12.60;99.90
59075;DHT22;44860;53.020;6.738;2022-11-15T13:43:52;12.60;99.90
59075;DHT22;44860;53.020;6.738;2022-11-15T13:46:26;12.60;99.90
59075;DHT22;44860;53.020;6.738;2022-11-15T13:49:05;12.50;99.90
59075;DHT22;44860;53.020;6.738;2022-11-15T13:54:30;12.50;99.90
59075;DHT22;44860;53.020;6.738;2022-11-15T13:57:33;12.50;99.90
59075;DHT22;44860;53.020;6.738;2022-11-15T14:00:00;12.50;99.90
59075;DHT22;44860;53.020;6.738;2022-11-15T14:02:31;12.50;99.90
59075;DHT22;44860;53.020;6.738;2022-11-15T14:04:59;12.40;99.90
59075;DHT22;44860;53.020;6.738;2022-11-15T14:07:27;12.40;99.90
59075;DHT22;44860;53.020;6.738;2022-11-15T14:09:54;12.40;99.90
59075;DHT22;44860;53.020;6.738;2022-11-15T14:12:49;12.40;99.90
59075;DHT22;44860;53.020;6.738;2022-11-15T14:15:27;12.40;99.90
59075;DHT22;44860;53.020;6.738;2022-11-15T14:17:53;12.40;99.90
59075;DHT22;44860;53.020;6.738;2022-11-15T14:22:56;12.40;99.90
59075;DHT22;44860;53.020;6.738;2022-11-15T14:25:24;12.40;99.90
59075;DHT22;44860;53.020;6.738;2022-11-15T14:28:10;12.30;99.90
59075;DHT22;44860;53.020;6.738;2022-11-15T14:30:36;12.30;99.90
59075;DHT22;44860;53.020;6.738;2022-11-15T14:33:38;12.30;99.90
59075;DHT22;44860;53.020;6.738;2022-11-15T14:36:17;12.30;99.90
59075;DHT22;44860;53.020;6.738;2022-11-15T14:38:43;12.30;99.90
59075;DHT22;44860;53.020;6.738;2022-11-15T14:41:25;12.20;99.90
59075;DHT22;44860;53.020;6.738;2022-11-15T14:43:52;12.20;99.90
59075;DHT22;44860;53.020;6.738;2022-11-15T14:46:18;12.10;99.90
59075;DHT22;44860;53.020;6.738;2022-11-15T14:48:44;12.10;99.90
59075;DHT22;44860;53.020;6.738;2022-11-15T14:51:16;12.10;99.90
59075;DHT22;44860;53.020;6.738;2022-11-15T14:53:42;12.00;99.90
59075;DHT22;44860;53.020;6.738;2022-11-15T14:56:08;12.00;99.90
59075;DHT22;44860;53.020;6.738;2022-11-15T14:58:34;11.90;99.90
59075;DHT22;44860;53.020;6.738;2022-11-15T15:01:03;11.90;99.90
59075;DHT22;44860;53.020;6.738;2022-11-15T15:03:34;11.90;99.90
59075;DHT22;44860;53.020;6.738;2022-11-15T15:06:00;11.80;99.90
59075;DHT22;44860;53.020;6.738;2022-11-15T15:08:26;11.80;99.90
59075;DHT22;44860;53.020;6.738;2022-11-15T15:10:51;11.70;99.90
59075;DHT22;44860;53.020;6.738;2022-11-15T15:13:22;11.70;99.90
59075;DHT22;44860;53.020;6.738;2022-11-15T15:15:49;11.60;99.90
59075;DHT22;44860;53.020;6.738;2022-11-15T15:18:15;11.60;99.90
59075;DHT22;44860;53.020;6.738;2022-11-15T15:20:41;11.50;99.90
59075;DHT22;44860;53.020;6.738;2022-11-15T15:23:16;11.50;99.90
59075;DHT22;44860;53.020;6.738;2022-11-15T15:25:43;11.40;99.90
59075;DHT22;44860;53.020;6.738;2022-11-15T15:28:10;11.40;99.90
59075;DHT22;44860;53.020;6.738;2022-11-15T15:30:36;11.30;99.90
59075;DHT22;44860;53.020;6.738;2022-11-15T15:33:02;11.30;99.90
59075;DHT22;44860;53.020;6.738;2022-11-15T15:35:30;11.30;99.90
59075;DHT22;44860;53.020;6.738;2022-11-15T15:37:57;11.20;99.90
59075;DHT22;44860;53.020;6.738;2022-11-15T15:40:24;11.20;99.90
59075;DHT22;44860;53.020;6.738;2022-11-15T15:42:50;11.20;99.90
59075;DHT22;44860;53.020;6.738;2022-11-15T15:45:17;11.20;99.90
59075;DHT22;44860;53.020;6.738;2022-11-15T15:47:44;11.10;99.90
59075;DHT22;44860;53.020;6.738;2022-11-15T15:50:31;11.10;99.90
59075;DHT22;44860;53.020;6.738;2022-11-15T15:53:00;11.10;99.90
59075;DHT22;44860;53.020;6.738;2022-11-15T15:55:26;11.10;99.90
59075;DHT22;44860;53.020;6.738;2022-11-15T15:57:53;11.10;99.90
59075;DHT22;44860;53.020;6.738;2022-11-15T16:00:20;11.10;99.90
59075;DHT22;44860;53.020;6.738;2022-11-15T16:02:45;11.10;99.90
59075;DHT22;44860;53.020;6.738;2022-11-15T16:05:12;11.10;99.90
59075;DHT22;44860;53.020;6.738;2022-11-15T16:07:38;11.10;99.90
59075;DHT22;44860;53.020;6.738;2022-11-15T16:10:18;11.00;99.90
59075;DHT22;44860;53.020;6.738;2022-11-15T16:12:44;11.00;99.90
59075;DHT22;44860;53.020;6.738;2022-11-15T16:15:10;11.00;99.90
59075;DHT22;44860;53.020;6.738;2022-11-15T16:17:39;11.00;99.90
59075;DHT22;44860;53.020;6.738;2022-11-15T16:20:06;11.00;99.90
59075;DHT22;44860;53.020;6.738;2022-11-15T16:22:34;11.00;99.90
59075;DHT22;44860;53.020;6.738;2022-11-15T16:25:00;11.00;99.90
59075;DHT22;44860;53.020;6.738;2022-11-15T16:27:25;10.90;99.90
59075;DHT22;44860;53.020;6.738;2022-11-15T16:29:51;10.90;99.90
59075;DHT22;44860;53.020;6.738;2022-11-15T16:32:17;10.90;99.90
59075;DHT22;44860;53.020;6.738;2022-11-15T16:34:42;10.90;99.90
59075;DHT22;44860;53.020;6.738;2022-11-15T16:37:22;10.90;99.90
59075;DHT22;44860;53.020;6.738;2022-11-15T16:39:48;10.90;99.90
59075;DHT22;44860;53.020;6.738;2022-11-15T16:42:14;10.90;99.90
59075;DHT22;44860;53.020;6.738;2022-11-15T16:44:39;10.90;99.90
59075;DHT22;44860;53.020;6.738;2022-11-15T16:47:09;10.90;99.90
59075;DHT22;44860;53.020;6.738;2022-11-15T16:49:36;10.90;99.90
59075;DHT22;44860;53.020;6.738;2022-11-15T16:52:02;10.90;99.90
59075;DHT22;44860;53.020;6.738;2022-11-15T16:54:27;10.90;99.90
59075;DHT22;44860;53.020;6.738;2022-11-15T16:56:53;10.90;99.90
59075;DHT22;44860;53.020;6.738;2022-11-15T16:59:19;10.90;99.90
59075;DHT22;44860;53.020;6.738;2022-11-15T17:01:45;10.90;99.90
59075;DHT22;44860;53.020;6.738;2022-11-15T17:04:18;10.90;99.90
59075;DHT22;44860;53.020;6.738;2022-11-15T17:06:46;10.90;99.90
59075;DHT22;44860;53.020;6.738;2022-11-15T17:09:21;10.90;99.90
59075;DHT22;44860;53.020;6.738;2022-11-15T17:11:51;10.90;99.90
59075;DHT22;44860;53.020;6.738;2022-11-15T17:14:17;10.90;99.90
59075;DHT22;44860;53.020;6.738;2022-11-15T17:16:43;10.90;99.90
59075;DHT22;44860;53.020;6.738;2022-11-15T17:19:16;10.90;99.90
59075;DHT22;44860;53.020;6.738;2022-11-15T17:21:42;10.90;99.90
59075;DHT22;44860;53.020;6.738;2022-11-15T17:24:08;10.90;99.90